createdAt,value
2019-02-17T00:00:31.945Z,10.87
2019-02-17T00:03:03.173Z,10.73
2019-02-17T00:05:34.341Z,10.43
2019-02-17T00:08:06.292Z,10.70
2019-02-17T00:10:37.086Z,10.50
2019-02-17T00:13:08.134Z,10.80
2019-02-17T00:15:39.159Z,11.07
2019-02-17T00:18:09.969Z,11.53
2019-02-17T00:20:40.804Z,11.13
2019-02-17T00:23:11.908Z,11.47
2019-02-17T00:25:43.166Z,11.73
2019-02-17T00:28:14.047Z,10.50
2019-02-17T00:30:44.940Z,9.77
2019-02-17T00:33:16.317Z,11.47
2019-02-17T00:35:47.357Z,11.93
2019-02-17T00:38:18.811Z,10.87
2019-02-17T00:40:49.610Z,12.90
2019-02-17T00:43:20.861Z,10.73
2019-02-17T00:45:51.668Z,10.63
2019-02-17T00:48:22.784Z,9.10
2019-02-17T00:50:53.960Z,9.37
2019-02-17T00:53:25.027Z,8.83
2019-02-17T00:55:55.823Z,8.90
2019-02-17T00:58:26.841Z,9.50
2019-02-17T01:00:57.642Z,9.90
2019-02-17T01:03:28.676Z,9.80
2019-02-17T01:05:59.599Z,9.07
2019-02-17T01:08:30.689Z,9.70
2019-02-17T01:11:01.473Z,10.20
2019-02-17T01:13:32.511Z,9.70
2019-02-17T01:16:03.297Z,10.67
2019-02-17T01:18:34.333Z,10.93
2019-02-17T01:21:05.193Z,11.00
2019-02-17T01:23:36.000Z,11.03
2019-02-17T01:26:06.785Z,11.37
2019-02-17T01:28:37.727Z,11.83
2019-02-17T01:31:09.380Z,11.13
2019-02-17T01:33:40.202Z,11.23
2019-02-17T01:36:11.072Z,11.30
2019-02-17T01:38:41.896Z,11.50
2019-02-17T01:41:13.014Z,11.10
2019-02-17T01:43:43.835Z,11.37
2019-02-17T01:46:14.642Z,10.97
2019-02-17T01:48:45.758Z,10.00
2019-02-17T01:51:16.907Z,10.50
2019-02-17T01:53:48.056Z,9.60
2019-02-17T01:56:19.084Z,9.13
2019-02-17T01:58:50.124Z,9.87
2019-02-17T02:01:21.231Z,9.50
2019-02-17T02:03:52.134Z,9.27
2019-02-17T02:06:23.304Z,9.67
2019-02-17T02:08:54.690Z,9.23
2019-02-17T02:11:26.898Z,10.13
2019-02-17T02:13:59.184Z,9.73
2019-02-17T02:16:30.058Z,9.47
2019-02-17T02:19:01.357Z,9.27
2019-02-17T02:21:32.378Z,9.07
2019-02-17T02:24:03.758Z,9.67
2019-02-17T02:26:34.778Z,10.03
2019-02-17T02:29:05.945Z,9.60
2019-02-17T02:31:37.275Z,9.53
2019-02-17T02:34:08.880Z,9.90
2019-02-17T02:36:39.682Z,9.87
2019-02-17T02:39:11.036Z,9.70
2019-02-17T02:41:41.832Z,9.90
2019-02-17T02:44:12.744Z,10.00
2019-02-17T02:46:44.711Z,9.67
2019-02-17T02:49:15.830Z,9.90
2019-02-17T02:51:46.866Z,11.00
2019-02-17T02:54:18.963Z,10.80
2019-02-17T02:56:50.082Z,11.33
2019-02-17T02:59:21.148Z,11.20
2019-02-17T03:01:52.562Z,12.23
2019-02-17T03:04:23.392Z,12.00
2019-02-17T03:06:56.841Z,13.30
2019-02-17T03:09:28.097Z,12.60
2019-02-17T03:11:58.919Z,13.17
2019-02-17T03:14:29.825Z,13.23
2019-02-17T03:17:01.198Z,12.70
2019-02-17T03:19:32.686Z,12.27
2019-02-17T03:22:03.524Z,13.13
2019-02-17T03:24:35.373Z,12.63
2019-02-17T03:27:06.731Z,13.70
2019-02-17T03:29:38.027Z,14.77
2019-02-17T03:32:12.001Z,15.33
2019-02-17T03:34:43.556Z,16.20
2019-02-17T03:37:14.611Z,15.03
2019-02-17T03:39:45.818Z,15.10
2019-02-17T03:42:17.086Z,15.93
2019-02-17T03:44:48.217Z,15.50
2019-02-17T03:47:20.055Z,16.27
2019-02-17T03:49:51.453Z,15.87
2019-02-17T03:52:23.880Z,15.07
2019-02-17T03:54:55.109Z,15.60
2019-02-17T03:57:26.245Z,13.87
2019-02-17T03:59:57.065Z,13.37
2019-02-17T04:02:27.941Z,13.30
2019-02-17T04:04:58.999Z,13.47
2019-02-17T04:07:29.813Z,13.80
2019-02-17T04:10:00.657Z,14.43
2019-02-17T04:12:31.561Z,14.90
2019-02-17T04:15:02.698Z,14.17
2019-02-17T04:17:34.194Z,15.00
2019-02-17T04:20:05.262Z,15.20
2019-02-17T04:22:36.522Z,15.27
2019-02-17T04:25:07.410Z,15.87
2019-02-17T04:27:38.231Z,15.70
2019-02-17T04:30:09.219Z,15.77
2019-02-17T04:32:40.289Z,16.33
2019-02-17T04:35:11.535Z,17.57
2019-02-17T04:37:42.649Z,16.60
2019-02-17T04:40:13.898Z,16.83
2019-02-17T04:42:44.704Z,16.50
2019-02-17T04:45:15.671Z,14.87
2019-02-17T04:47:46.486Z,15.33
2019-02-17T04:50:17.409Z,14.73
2019-02-17T04:52:48.523Z,14.93
2019-02-17T04:55:19.823Z,14.60
2019-02-17T04:57:50.711Z,15.00
2019-02-17T05:00:21.708Z,15.63
2019-02-17T05:02:52.743Z,15.23
2019-02-17T05:05:23.697Z,14.97
2019-02-17T05:07:54.626Z,17.07
2019-02-17T05:10:26.260Z,17.23
2019-02-17T05:12:57.990Z,17.87
2019-02-17T05:15:29.058Z,17.20
2019-02-17T05:18:00.169Z,17.90
2019-02-17T05:20:30.985Z,17.83
2019-02-17T05:23:01.862Z,17.17
2019-02-17T05:25:32.917Z,16.87
2019-02-17T05:28:04.195Z,16.57
2019-02-17T05:30:35.447Z,16.40
2019-02-17T05:33:06.249Z,18.03
2019-02-17T05:35:37.622Z,16.83
2019-02-17T05:38:09.333Z,17.50
2019-02-17T05:40:40.807Z,17.33
2019-02-17T05:43:11.753Z,16.23
2019-02-17T05:45:42.656Z,15.47
2019-02-17T05:48:13.466Z,16.73
2019-02-17T05:50:44.609Z,16.03
2019-02-17T05:53:16.158Z,14.80
2019-02-17T05:55:47.420Z,15.53
2019-02-17T05:58:18.265Z,15.83
2019-02-17T06:00:49.571Z,15.40
2019-02-17T06:03:20.458Z,15.27
2019-02-17T06:05:51.595Z,14.33
2019-02-17T06:08:22.804Z,14.10
2019-02-17T06:10:53.871Z,15.17
2019-02-17T06:13:24.946Z,16.60
2019-02-17T06:15:55.835Z,15.80
2019-02-17T06:18:26.711Z,14.70
2019-02-17T06:20:58.146Z,13.87
2019-02-17T06:23:30.180Z,13.90
2019-02-17T06:26:02.276Z,14.67
2019-02-17T06:28:33.111Z,14.37
2019-02-17T06:31:13.662Z,14.77
2019-02-17T06:33:37.138Z,15.00
2019-02-17T06:36:07.969Z,12.27
2019-02-17T06:38:38.934Z,12.97
2019-02-17T06:41:10.469Z,12.60
2019-02-17T06:43:41.840Z,12.33
2019-02-17T06:46:16.470Z,12.87
2019-02-17T06:48:47.432Z,11.87
2019-02-17T06:51:18.260Z,13.10
2019-02-17T06:53:49.141Z,13.33
2019-02-17T06:56:39.274Z,13.30
2019-02-17T06:59:10.302Z,13.70
2019-02-17T07:01:41.202Z,13.57
2019-02-17T07:04:12.275Z,13.87
2019-02-17T07:06:50.504Z,13.57
2019-02-17T07:09:21.610Z,13.27
2019-02-17T07:11:52.804Z,13.03
2019-02-17T07:14:23.856Z,13.63
2019-02-17T07:16:54.824Z,12.73
2019-02-17T07:19:25.688Z,12.67
2019-02-17T07:21:56.690Z,12.73
2019-02-17T07:24:27.733Z,13.23
2019-02-17T07:26:58.821Z,14.23
2019-02-17T07:29:29.627Z,13.50
2019-02-17T07:32:00.701Z,13.43
2019-02-17T07:34:31.746Z,13.20
2019-02-17T07:37:02.931Z,13.70
2019-02-17T07:39:33.747Z,13.80
2019-02-17T07:42:04.657Z,14.03
2019-02-17T07:44:35.555Z,13.90
2019-02-17T07:47:06.450Z,13.17
2019-02-17T07:49:38.518Z,14.87
2019-02-17T07:52:09.765Z,16.60
2019-02-17T07:54:40.883Z,16.67
2019-02-17T07:57:12.026Z,16.70
2019-02-17T07:59:42.830Z,17.00
2019-02-17T08:02:13.888Z,18.00
2019-02-17T08:04:44.762Z,17.80
2019-02-17T08:07:15.935Z,18.07
2019-02-17T08:09:46.980Z,16.43
2019-02-17T08:12:18.138Z,16.30
2019-02-17T08:14:49.036Z,17.13
2019-02-17T08:17:20.106Z,17.27
2019-02-17T08:19:51.292Z,18.10
2019-02-17T08:22:22.076Z,18.33
2019-02-17T08:24:53.082Z,18.60
2019-02-17T08:27:24.037Z,17.77
2019-02-17T08:29:55.208Z,17.53
2019-02-17T08:32:26.155Z,17.00
2019-02-17T08:34:57.006Z,15.87
2019-02-17T08:37:28.651Z,16.57
2019-02-17T08:39:59.454Z,16.60
2019-02-17T08:42:30.330Z,17.73
2019-02-17T08:45:01.377Z,17.27
2019-02-17T08:47:32.501Z,16.93
2019-02-17T08:50:03.625Z,15.50
2019-02-17T08:52:34.523Z,15.37
2019-02-17T08:55:05.802Z,16.70
2019-02-17T08:57:38.077Z,20.77
2019-02-17T09:00:10.766Z,18.37
2019-02-17T09:02:41.695Z,19.47
2019-02-17T09:05:13.299Z,18.33
2019-02-17T09:07:44.262Z,17.77
2019-02-17T09:10:15.378Z,17.37
2019-02-17T09:12:46.270Z,18.30
2019-02-17T09:15:17.571Z,17.53
2019-02-17T09:17:48.753Z,18.40
2019-02-17T09:20:19.554Z,19.80
2019-02-17T09:22:50.403Z,20.90
2019-02-17T09:25:21.594Z,21.00
2019-02-17T09:27:52.628Z,20.27
2019-02-17T09:30:23.430Z,20.67
2019-02-17T09:32:54.487Z,19.93
2019-02-17T09:35:26.554Z,19.50
2019-02-17T09:37:57.675Z,19.20
2019-02-17T09:40:28.972Z,19.50
2019-02-17T09:43:00.409Z,21.60
2019-02-17T09:45:31.362Z,20.50
2019-02-17T09:48:02.657Z,19.27
2019-02-17T09:50:33.769Z,19.47
2019-02-17T09:53:05.209Z,20.53
2019-02-17T09:55:36.344Z,19.37
2019-02-17T09:58:07.236Z,18.27
2019-02-17T10:00:38.517Z,19.07
2019-02-17T10:03:09.657Z,19.77
2019-02-17T10:05:40.730Z,18.23
2019-02-17T10:08:11.647Z,18.87
2019-02-17T10:10:42.779Z,18.67
2019-02-17T10:13:14.210Z,18.33
2019-02-17T10:15:45.104Z,18.13
2019-02-17T10:18:16.234Z,17.90
2019-02-17T10:20:47.594Z,17.67
2019-02-17T10:23:19.139Z,17.27
2019-02-17T10:25:50.193Z,17.67
2019-02-17T10:28:21.320Z,17.10
2019-02-17T10:30:52.469Z,17.73
2019-02-17T10:33:23.361Z,16.83
2019-02-17T10:35:54.246Z,17.17
2019-02-17T10:38:25.077Z,16.57
2019-02-17T10:40:56.151Z,15.77
2019-02-17T10:43:27.301Z,16.13
2019-02-17T10:45:58.651Z,15.83
2019-02-17T10:48:29.675Z,16.30
2019-02-17T10:51:00.793Z,16.23
2019-02-17T10:53:31.888Z,17.37
2019-02-17T10:56:03.160Z,16.00
2019-02-17T10:58:34.229Z,17.37
2019-02-17T11:01:05.157Z,17.17
2019-02-17T11:03:36.300Z,17.13
2019-02-17T11:06:07.181Z,17.10
2019-02-17T11:08:38.242Z,16.90
2019-02-17T11:11:09.550Z,17.40
2019-02-17T11:13:41.367Z,17.87
2019-02-17T11:16:12.695Z,17.20
2019-02-17T11:18:43.724Z,17.77
2019-02-17T11:21:14.843Z,16.50
2019-02-17T11:23:45.860Z,18.20
2019-02-17T11:26:16.980Z,17.67
2019-02-17T11:28:47.997Z,18.13
2019-02-17T11:31:19.118Z,18.00
2019-02-17T11:33:50.256Z,18.53
2019-02-17T11:36:21.425Z,17.83
2019-02-17T11:38:52.571Z,17.60
2019-02-17T11:41:23.697Z,17.50
2019-02-17T11:43:54.615Z,17.90
2019-02-17T11:46:25.609Z,18.47
2019-02-17T11:48:57.423Z,18.73
2019-02-17T11:51:28.477Z,18.47
2019-02-17T11:53:59.584Z,18.07
2019-02-17T11:56:30.583Z,18.20
2019-02-17T11:59:01.415Z,18.63
2019-02-17T12:01:32.437Z,18.10
2019-02-17T12:04:03.450Z,18.67
2019-02-17T12:06:34.294Z,18.87
2019-02-17T12:09:06.192Z,17.90
2019-02-17T12:11:38.652Z,18.37
2019-02-17T12:14:09.794Z,18.37
2019-02-17T12:16:40.548Z,19.37
2019-02-17T12:19:11.601Z,18.00
2019-02-17T12:21:59.488Z,18.80
2019-02-17T12:24:35.467Z,18.17
2019-02-17T12:27:17.877Z,18.73
2019-02-17T12:29:52.602Z,18.33
2019-02-17T12:32:28.563Z,18.27
2019-02-17T12:34:59.387Z,19.17
2019-02-17T12:37:30.428Z,18.60
2019-02-17T12:40:01.498Z,18.83
2019-02-17T12:42:33.410Z,18.50
2019-02-17T12:45:04.553Z,19.20
2019-02-17T12:47:35.846Z,18.20
2019-02-17T12:50:08.274Z,18.80
2019-02-17T12:52:46.776Z,18.03
2019-02-17T12:55:12.344Z,18.37
2019-02-17T12:57:43.229Z,18.10
2019-02-17T13:00:16.390Z,17.93
2019-02-17T13:02:47.279Z,17.53
2019-02-17T13:05:18.336Z,17.57
2019-02-17T13:07:49.149Z,18.70
2019-02-17T13:10:19.972Z,17.97
2019-02-17T13:12:50.860Z,18.10
2019-02-17T13:15:21.747Z,17.77
2019-02-17T13:17:53.078Z,18.10
2019-02-17T13:20:23.928Z,17.73
2019-02-17T13:22:54.999Z,16.73
2019-02-17T13:25:26.065Z,16.10
2019-02-17T13:27:57.734Z,14.93
2019-02-17T13:30:28.877Z,13.60
2019-02-17T13:33:00.972Z,14.20
2019-02-17T13:35:31.870Z,14.77
2019-02-17T13:38:02.888Z,13.70
2019-02-17T13:40:33.739Z,13.40
2019-02-17T13:43:04.863Z,13.97
2019-02-17T13:45:36.076Z,14.27
2019-02-17T13:48:07.045Z,13.97
2019-02-17T13:50:38.203Z,14.27
2019-02-17T13:53:12.067Z,13.87
2019-02-17T13:55:43.094Z,13.37
2019-02-17T13:58:14.148Z,12.03
2019-02-17T14:00:44.968Z,12.47
2019-02-17T14:03:15.859Z,11.70
2019-02-17T14:05:46.920Z,10.23
2019-02-17T14:08:18.284Z,10.17
2019-02-17T14:10:49.598Z,9.03
2019-02-17T14:13:21.694Z,9.20
2019-02-17T14:15:52.848Z,8.97
2019-02-17T14:18:23.777Z,9.03
2019-02-17T14:20:54.670Z,9.80
2019-02-17T14:23:26.203Z,9.97
2019-02-17T14:25:57.017Z,9.50
2019-02-17T14:28:28.200Z,10.17
2019-02-17T14:30:59.274Z,9.63
2019-02-17T14:33:30.428Z,9.07
2019-02-17T14:36:01.480Z,10.23
2019-02-17T14:38:32.532Z,10.30
2019-02-17T14:41:03.515Z,10.60
2019-02-17T14:43:34.627Z,10.20
2019-02-17T14:46:05.763Z,9.73
2019-02-17T14:48:36.571Z,10.43
2019-02-17T14:51:07.696Z,11.60
2019-02-17T14:53:38.825Z,11.40
2019-02-17T14:56:10.105Z,9.90
2019-02-17T14:58:41.985Z,9.63
2019-02-17T15:01:12.918Z,10.57
2019-02-17T15:03:43.944Z,10.67
2019-02-17T15:06:14.770Z,9.67
2019-02-17T15:08:46.731Z,9.23
2019-02-17T15:11:18.189Z,8.37
2019-02-17T15:13:49.856Z,9.27
2019-02-17T15:16:21.363Z,9.10
2019-02-17T15:18:52.548Z,8.90
2019-02-17T15:21:23.490Z,8.60
2019-02-17T15:23:54.625Z,8.53
2019-02-17T15:26:25.449Z,7.87
2019-02-17T15:28:56.251Z,8.37
2019-02-17T15:31:27.080Z,8.50
2019-02-17T15:33:58.109Z,9.00
2019-02-17T15:36:29.246Z,8.93
2019-02-17T15:39:00.362Z,9.63
2019-02-17T15:41:32.795Z,9.03
2019-02-17T15:44:03.854Z,9.30
2019-02-17T15:46:34.799Z,9.67
2019-02-17T15:49:05.847Z,11.33
2019-02-17T15:51:37.368Z,10.57
2019-02-17T15:54:08.621Z,10.10
2019-02-17T15:56:39.868Z,9.60
2019-02-17T15:59:11.002Z,9.50
2019-02-17T16:01:42.191Z,8.47
2019-02-17T16:04:13.305Z,8.57
2019-02-17T16:06:44.127Z,8.13
2019-02-17T16:09:15.905Z,8.67
2019-02-17T16:11:46.975Z,8.60
2019-02-17T16:14:18.256Z,9.30
2019-02-17T16:16:49.743Z,10.50
2019-02-17T16:19:20.635Z,12.50
2019-02-17T16:21:51.919Z,13.13
2019-02-17T16:24:22.795Z,11.53
2019-02-17T16:26:53.766Z,11.47
2019-02-17T16:29:24.571Z,14.00
2019-02-17T16:31:55.463Z,9.67
2019-02-17T16:34:26.330Z,9.33
2019-02-17T16:36:57.709Z,9.80
2019-02-17T16:39:29.079Z,8.90
2019-02-17T16:42:01.018Z,8.63
2019-02-17T16:44:31.976Z,8.77
2019-02-17T16:47:03.077Z,11.27
2019-02-17T16:49:34.004Z,10.33
2019-02-17T16:52:04.882Z,8.17
2019-02-17T16:54:36.025Z,7.17
2019-02-17T16:57:07.374Z,8.97
2019-02-17T16:59:38.269Z,7.60
2019-02-17T17:02:09.278Z,8.37
2019-02-17T17:04:48.040Z,9.37
2019-02-17T17:07:12.978Z,10.17
2019-02-17T17:09:43.854Z,8.20
2019-02-17T17:12:15.041Z,6.77
2019-02-17T17:14:45.906Z,6.13
2019-02-17T17:17:16.964Z,6.13
2019-02-17T17:19:47.852Z,5.80
2019-02-17T17:22:18.669Z,6.57
2019-02-17T17:24:49.705Z,5.93
2019-02-17T17:27:21.247Z,6.23
2019-02-17T17:29:52.356Z,8.30
2019-02-17T17:32:23.341Z,9.00
2019-02-17T17:34:58.865Z,13.60
2019-02-17T17:37:26.968Z,14.37
2019-02-17T17:39:58.073Z,16.73
2019-02-17T17:42:29.211Z,17.83
2019-02-17T17:45:01.105Z,16.97
2019-02-17T17:47:33.792Z,12.33
2019-02-17T17:50:05.037Z,9.47
2019-02-17T17:52:35.858Z,11.37
2019-02-17T17:55:07.073Z,11.67
2019-02-17T17:57:38.278Z,12.37
2019-02-17T18:00:10.771Z,14.17
2019-02-17T18:02:45.442Z,16.07
2019-02-17T18:05:14.847Z,14.57
2019-02-17T18:07:45.868Z,13.03
2019-02-17T18:10:16.775Z,12.13
2019-02-17T18:12:47.620Z,8.27
2019-02-17T18:15:18.650Z,7.13
2019-02-17T18:17:54.324Z,6.90
2019-02-17T18:20:22.580Z,6.70
2019-02-17T18:22:53.562Z,8.13
2019-02-17T18:25:24.602Z,7.27
2019-02-17T18:27:56.109Z,5.47
2019-02-17T18:30:26.927Z,5.90
2019-02-17T18:32:58.139Z,5.83
2019-02-17T18:35:29.071Z,7.10
2019-02-17T18:38:00.599Z,43.37
2019-02-17T18:40:31.657Z,8.83
2019-02-17T18:43:02.992Z,6.40
2019-02-17T18:45:34.132Z,6.13
2019-02-17T18:48:05.091Z,5.60
2019-02-17T18:50:36.214Z,5.53
2019-02-17T18:53:07.172Z,6.30
2019-02-17T18:55:38.013Z,5.67
2019-02-17T18:58:09.075Z,5.80
2019-02-17T19:00:40.354Z,5.23
2019-02-17T19:03:11.237Z,5.40
2019-02-17T19:05:42.370Z,5.23
2019-02-17T19:08:13.240Z,5.50
2019-02-17T19:10:44.350Z,5.40
2019-02-17T19:13:15.927Z,5.30
2019-02-17T19:15:46.998Z,5.40
2019-02-17T19:18:18.663Z,5.23
2019-02-17T19:20:49.731Z,5.40
2019-02-17T19:23:20.645Z,5.10
2019-02-17T19:25:51.622Z,5.00
2019-02-17T19:28:22.709Z,5.50
2019-02-17T19:30:53.843Z,5.50
2019-02-17T19:33:24.635Z,5.37
2019-02-17T19:35:55.788Z,5.57
2019-02-17T19:38:27.196Z,5.77
2019-02-17T19:40:59.259Z,5.93
2019-02-17T19:43:31.474Z,5.20
2019-02-17T19:46:02.535Z,5.77
2019-02-17T19:48:33.652Z,5.97
2019-02-17T19:51:04.638Z,5.23
2019-02-17T19:53:35.737Z,5.43
2019-02-17T19:56:07.524Z,5.03
2019-02-17T19:58:38.701Z,6.53
2019-02-17T20:01:09.843Z,5.50
2019-02-17T20:03:47.499Z,5.33
2019-02-17T20:06:20.559Z,5.07
2019-02-17T20:08:51.348Z,4.97
2019-02-17T20:11:22.244Z,5.10
2019-02-17T20:13:53.035Z,5.10
2019-02-17T20:16:24.403Z,5.13
2019-02-17T20:18:55.479Z,5.33
2019-02-17T20:21:27.395Z,5.10
2019-02-17T20:23:58.422Z,5.33
2019-02-17T20:26:29.728Z,5.20
2019-02-17T20:29:01.614Z,5.37
2019-02-17T20:31:32.461Z,5.33
2019-02-17T20:34:03.402Z,4.93
2019-02-17T20:36:34.288Z,4.60
2019-02-17T20:39:06.455Z,4.93
2019-02-17T20:41:38.023Z,4.80
2019-02-17T20:44:09.207Z,5.00
2019-02-17T20:46:40.728Z,4.80
2019-02-17T20:49:11.580Z,5.20
2019-02-17T20:51:42.747Z,5.07
2019-02-17T20:54:13.770Z,4.70
2019-02-17T20:56:44.919Z,5.40
2019-02-17T20:59:15.793Z,5.30
2019-02-17T21:01:46.596Z,5.40
2019-02-17T21:04:17.458Z,5.97
2019-02-17T21:06:48.488Z,5.50
2019-02-17T21:09:19.898Z,5.90
2019-02-17T21:11:50.957Z,6.23
2019-02-17T21:14:21.820Z,6.20
2019-02-17T21:16:52.637Z,6.03
2019-02-17T21:19:24.693Z,5.80
2019-02-17T21:21:56.001Z,5.60
2019-02-17T21:24:27.028Z,6.23
2019-02-17T21:26:58.173Z,5.53
2019-02-17T21:29:29.449Z,5.43
2019-02-17T21:32:00.348Z,5.13
2019-02-17T21:34:31.552Z,4.30
2019-02-17T21:37:02.690Z,4.20
2019-02-17T21:39:33.561Z,4.40
2019-02-17T21:42:05.207Z,4.60
2019-02-17T21:44:36.330Z,4.80
2019-02-17T21:47:07.499Z,4.57
2019-02-17T21:49:38.868Z,4.60
2019-02-17T21:52:09.680Z,4.67
2019-02-17T21:54:40.479Z,4.30
2019-02-17T21:57:11.368Z,4.83
2019-02-17T21:59:42.233Z,4.83
2019-02-17T22:02:13.408Z,4.97
2019-02-17T22:04:44.442Z,4.60
2019-02-17T22:07:15.749Z,4.20
2019-02-17T22:09:46.980Z,4.30
2019-02-17T22:12:18.954Z,4.63
2019-02-17T22:14:49.744Z,4.10
2019-02-17T22:17:21.134Z,4.90
2019-02-17T22:19:52.236Z,4.30
2019-02-17T22:22:23.188Z,4.60
2019-02-17T22:24:54.343Z,4.30
2019-02-17T22:27:25.157Z,4.10
2019-02-17T22:29:56.630Z,3.80
2019-02-17T22:32:27.797Z,4.63
2019-02-17T22:34:58.664Z,4.30
2019-02-17T22:37:29.553Z,4.20
2019-02-17T22:40:00.492Z,4.50
2019-02-17T22:42:31.447Z,4.10
2019-02-17T22:45:02.577Z,4.30
2019-02-17T22:47:33.669Z,4.70
2019-02-17T22:50:04.684Z,4.20
2019-02-17T22:52:35.485Z,4.23
2019-02-17T22:55:07.421Z,5.20
2019-02-17T22:57:38.307Z,4.57
2019-02-17T23:00:19.560Z,5.63
2019-02-17T23:02:52.196Z,5.27
2019-02-17T23:05:23.228Z,5.70
2019-02-17T23:07:54.102Z,13.27
2019-02-17T23:10:25.117Z,10.00
2019-02-17T23:12:56.284Z,6.47
2019-02-17T23:15:27.388Z,5.27
2019-02-17T23:17:58.470Z,5.77
2019-02-17T23:20:29.495Z,7.67
2019-02-17T23:23:00.590Z,5.27
2019-02-17T23:25:31.375Z,6.23
2019-02-17T23:28:02.211Z,5.83
2019-02-17T23:30:33.321Z,5.60
2019-02-17T23:33:04.274Z,5.00
2019-02-17T23:35:35.291Z,5.10
2019-02-17T23:38:06.433Z,5.00
2019-02-17T23:40:37.319Z,4.90
2019-02-17T23:43:08.437Z,4.93
2019-02-17T23:45:39.859Z,5.20
2019-02-17T23:48:10.893Z,6.00
2019-02-17T23:50:41.939Z,6.47
2019-02-17T23:53:12.747Z,6.17
2019-02-17T23:55:43.953Z,7.23
2019-02-17T23:58:15.077Z,6.90
